Time;durP1;ratioP1;P1;durP2;ratioP2;P2;SDS_P1;SDS_P2;PMS_P1;PMS_P2;Temp;Humidity;BMP_temperature;BMP_pressure;BME280_temperature;BME280_humidity;BME280_pressure;Samples;Min_cycle;Max_cycle;Signal;HPM_P1;HPM_P2
2022/08/10 00:02:40;;;;;;;3.20;1.85;;;24.10;52.50;;;;;;4917714;29;20062;-79
2022/08/10 00:05:06;;;;;;;6.22;1.90;;;24.00;52.70;;;;;;4918357;29;20092;-79
2022/08/10 00:07:32;;;;;;;6.60;2.50;;;24.00;52.80;;;;;;4902457;29;20028;-79
2022/08/10 00:09:57;;;;;;;5.10;2.20;;;24.00;52.60;;;;;;4905867;29;20480;-79
2022/08/10 00:12:23;;;;;;;3.50;1.60;;;24.00;52.40;;;;;;4917064;29;20021;-79
2022/08/10 00:14:49;;;;;;;3.30;2.00;;;24.00;52.50;;;;;;4902335;29;20043;-79
2022/08/10 00:17:14;;;;;;;5.95;2.03;;;23.90;53.20;;;;;;4902365;29;20032;-79
2022/08/10 00:19:40;;;;;;;4.10;1.90;;;23.90;53.20;;;;;;4902179;29;20111;-79
2022/08/10 00:22:06;;;;;;;4.43;2.33;;;23.80;53.00;;;;;;4901862;29;20032;-79
2022/08/10 00:24:31;;;;;;;5.32;2.38;;;23.80;53.30;;;;;;4902258;29;20037;-79
2022/08/10 00:26:57;;;;;;;7.03;2.63;;;23.80;53.50;;;;;;4901910;29;20059;-79
2022/08/10 00:29:23;;;;;;;5.00;2.15;;;23.80;53.40;;;;;;4916626;29;20469;-80
2022/08/10 00:31:48;;;;;;;7.25;2.60;;;23.80;53.60;;;;;;4916632;29;20481;-79
2022/08/10 00:34:14;;;;;;;3.10;1.73;;;23.80;53.60;;;;;;4901623;29;20031;-79
2022/08/10 00:36:40;;;;;;;7.15;2.08;;;23.80;53.40;;;;;;4901972;29;20032;-79
2022/08/10 00:39:05;;;;;;;6.30;2.45;;;23.80;53.60;;;;;;4901895;29;20028;-79
2022/08/10 00:41:31;;;;;;;2.25;1.85;;;23.70;53.40;;;;;;4901686;29;20544;-79
2022/08/10 00:43:57;;;;;;;5.00;2.33;;;23.80;53.60;;;;;;4902074;29;20029;-80
2022/08/10 00:46:22;;;;;;;4.53;2.25;;;23.80;53.20;;;;;;4901680;29;20116;-79
2022/08/10 00:48:48;;;;;;;6.30;2.20;;;23.80;53.70;;;;;;4901433;29;20595;-79
2022/08/10 00:51:14;;;;;;;4.60;2.00;;;23.70;53.40;;;;;;4901691;29;20134;-79
2022/08/10 00:53:40;;;;;;;5.43;1.80;;;23.80;53.60;;;;;;4900466;29;20032;-79
2022/08/10 00:56:06;;;;;;;3.20;1.73;;;23.70;53.80;;;;;;4899898;29;20165;-79
2022/08/10 00:58:33;;;;;;;3.60;1.95;;;23.60;53.90;;;;;;4901297;29;20084;-80
2022/08/10 01:01:01;;;;;;;5.88;2.53;;;23.60;54.30;;;;;;4901305;29;20032;-79
2022/08/10 01:03:26;;;;;;;5.47;2.33;;;23.50;54.40;;;;;;4901326;29;20080;-79
2022/08/10 01:06:04;;;;;;;5.68;2.30;;;23.50;54.30;;;;;;4900568;29;20040;-79
2022/08/10 01:08:39;;;;;;;7.82;2.28;;;23.50;54.40;;;;;;4915751;29;20111;-79
2022/08/10 01:11:13;;;;;;;5.07;2.28;;;23.50;54.40;;;;;;4915070;29;20025;-79
2022/08/10 01:13:47;;;;;;;6.10;2.28;;;23.50;54.00;;;;;;4901327;29;20500;-79
2022/08/10 01:16:22;;;;;;;4.70;2.40;;;23.50;54.30;;;;;;4915107;29;20025;-79
2022/08/10 01:18:57;;;;;;;7.80;2.88;;;23.50;54.10;;;;;;4901412;29;20047;-79
2022/08/10 01:21:50;;;;;;;4.65;2.22;;;23.40;54.70;;;;;;4918804;29;20032;-79
2022/08/10 01:24:40;;;;;;;3.35;2.17;;;23.30;54.80;;;;;;4909793;29;20096;-79
2022/08/10 01:27:31;;;;;;;6.53;2.53;;;23.30;54.70;;;;;;4938854;29;20039;-79
2022/08/10 01:30:12;;;;;;;4.40;2.10;;;23.30;54.70;;;;;;4938822;29;20028;-79
2022/08/10 01:32:58;;;;;;;6.95;2.17;;;23.30;54.60;;;;;;4915780;29;20480;-79
2022/08/10 01:35:45;;;;;;;7.90;2.75;;;23.30;55.00;;;;;;4900497;29;20076;-79
2022/08/10 01:38:16;;;;;;;5.80;2.17;;;23.20;55.20;;;;;;4900913;29;20020;-79
2022/08/10 01:40:49;;;;;;;2.58;1.92;;;23.30;54.80;;;;;;4915286;29;20044;-79
2022/08/10 01:43:18;;;;;;;4.05;1.77;;;23.20;54.70;;;;;;4900796;29;20033;-80
2022/08/10 01:45:47;;;;;;;5.70;2.20;;;23.20;54.80;;;;;;4900840;29;20063;-79
2022/08/10 01:48:32;;;;;;;3.03;2.40;;;23.20;54.80;;;;;;4899438;29;20045;-79
2022/08/10 01:51:19;;;;;;;4.00;1.90;;;23.10;54.60;;;;;;4910531;29;20217;-79
2022/08/10 01:54:10;;;;;;;4.03;1.80;;;23.20;54.50;;;;;;4900648;29;20895;-79
2022/08/10 01:56:39;;;;;;;7.00;1.92;;;23.10;54.90;;;;;;4897730;29;20068;-79
2022/08/10 01:59:12;;;;;;;4.90;1.90;;;23.10;54.70;;;;;;4899852;29;20048;-79
2022/08/10 02:01:41;;;;;;;4.10;2.10;;;23.10;55.10;;;;;;4900088;29;20048;-79
2022/08/10 02:04:10;;;;;;;5.10;2.40;;;23.00;55.40;;;;;;4900419;29;20111;-79
2022/08/10 02:06:42;;;;;;;5.38;1.90;;;23.00;55.30;;;;;;4900430;29;20049;-79
2022/08/10 02:09:12;;;;;;;3.83;2.20;;;22.90;55.30;;;;;;4903420;29;20056;-79
2022/08/10 02:11:38;;;;;;;;;;;23.00;55.10;;;;;;4953587;29;20035;-80
2022/08/10 02:14:05;;;;;;;4.35;1.95;;;22.90;55.30;;;;;;4938264;29;20401;-80
2022/08/10 02:16:33;;;;;;;4.63;2.45;;;22.90;54.90;;;;;;4928347;29;20469;-80
2022/08/10 02:19:00;;;;;;;4.47;2.30;;;22.90;55.10;;;;;;4900144;29;20037;-80
2022/08/10 02:21:28;;;;;;;4.68;2.42;;;22.90;55.10;;;;;;4900277;29;20028;-80
2022/08/10 02:23:55;;;;;;;5.43;2.10;;;22.90;55.60;;;;;;4913781;29;20064;-80
2022/08/10 02:26:24;;;;;;;7.53;2.47;;;22.80;55.50;;;;;;4899867;29;20056;-80
2022/08/10 02:28:52;;;;;;;4.40;2.20;;;22.80;55.50;;;;;;4899904;29;20477;-80
2022/08/10 02:31:24;;;;;;;5.20;2.17;;;22.80;55.90;;;;;;4900048;29;20115;-80
2022/08/10 02:33:53;;;;;;;5.72;2.50;;;22.80;55.70;;;;;;4900080;29;20386;-79
2022/08/10 02:36:21;;;;;;;2.80;2.22;;;22.80;56.20;;;;;;4899956;29;20021;-80
2022/08/10 02:38:52;;;;;;;5.55;2.70;;;22.70;55.40;;;;;;4899993;29;20052;-80
2022/08/10 02:41:27;;;;;;;6.38;2.00;;;22.70;55.90;;;;;;4900294;29;20031;-80
2022/08/10 02:44:12;;;;;;;4.75;2.45;;;22.70;55.60;;;;;;4899642;29;20043;-80
2022/08/10 02:46:54;;;;;;;3.83;2.38;;;22.70;55.70;;;;;;4899795;29;20031;-79
2022/08/10 02:49:30;;;;;;;4.30;2.65;;;22.70;55.50;;;;;;4900014;29;20047;-80
2022/08/10 02:51:56;;;;;;;4.53;2.50;;;22.60;55.90;;;;;;4914539;29;20386;-80
2022/08/10 02:54:50;;;;;;;3.50;2.20;;;22.60;55.90;;;;;;4899946;29;20055;-80
2022/08/10 02:57:21;;;;;;;4.50;2.22;;;22.60;55.90;;;;;;4900189;29;20040;-80
2022/08/10 02:59:53;;;;;;;5.25;2.38;;;22.60;56.30;;;;;;4899986;29;20123;-80
2022/08/10 03:02:41;;;;;;;3.65;1.95;;;22.60;56.20;;;;;;4913842;29;20048;-80
2022/08/10 03:05:12;;;;;;;4.55;2.38;;;22.60;56.20;;;;;;4901663;29;20052;-80
2022/08/10 03:08:04;;;;;;;5.75;2.33;;;22.50;56.20;;;;;;4899985;29;20029;-79
2022/08/10 03:10:32;;;;;;;6.05;2.70;;;22.50;56.40;;;;;;4924543;29;20546;-80
2022/08/10 03:13:00;;;;;;;3.83;2.08;;;22.40;57.30;;;;;;4902098;29;20520;-80
2022/08/10 03:15:31;;;;;;;4.95;2.60;;;22.30;57.30;;;;;;4899947;29;20464;-80
2022/08/10 03:17:58;;;;;;;4.18;2.20;;;22.20;57.60;;;;;;4899666;29;20025;-80
2022/08/10 03:20:29;;;;;;;5.53;2.63;;;22.30;56.90;;;;;;4899633;29;20036;-80
2022/08/10 03:23:17;;;;;;;6.68;2.47;;;22.20;56.90;;;;;;4899829;29;20465;-80
2022/08/10 03:25:45;;;;;;;6.07;2.38;;;22.20;57.30;;;;;;4900202;29;20973;-79
2022/08/10 03:28:11;;;;;;;2.92;2.25;;;22.10;57.50;;;;;;4899654;29;20036;-80
2022/08/10 03:30:38;;;;;;;4.63;2.78;;;21.90;57.50;;;;;;4902102;29;20065;-79
2022/08/10 03:33:06;;;;;;;4.45;2.35;;;21.90;57.90;;;;;;4917679;29;20491;-80
2022/08/10 03:35:32;;;;;;;5.22;3.10;;;21.80;57.50;;;;;;4916939;29;20043;-80
2022/08/10 03:37:59;;;;;;;5.32;2.30;;;21.80;58.30;;;;;;4903297;29;20088;-79
2022/08/10 03:40:33;;;;;;;4.30;2.42;;;21.70;58.20;;;;;;4903188;29;20047;-79
2022/08/10 03:43:02;;;;;;;4.72;2.63;;;21.80;58.10;;;;;;4902807;29;20069;-79
2022/08/10 03:45:31;;;;;;;4.57;2.47;;;21.70;58.00;;;;;;4903059;29;20084;-80
2022/08/10 03:47:58;;;;;;;6.97;3.40;;;21.70;58.10;;;;;;4917412;29;20036;-80
2022/08/10 03:50:25;;;;;;;6.10;2.83;;;21.70;58.60;;;;;;4902493;29;20476;-80
2022/08/10 03:52:52;;;;;;;7.32;3.40;;;21.60;58.60;;;;;;4901415;29;20020;-80
2022/08/10 03:55:18;;;;;;;4.18;2.53;;;21.60;58.40;;;;;;4902731;29;20764;-80
2022/08/10 03:57:44;;;;;;;5.00;2.35;;;21.60;58.70;;;;;;4902523;29;20024;-80
2022/08/10 04:00:11;;;;;;;6.95;3.10;;;21.60;58.90;;;;;;4902645;29;20056;-80
2022/08/10 04:02:38;;;;;;;4.45;2.65;;;21.60;58.70;;;;;;4916977;29;20072;-80
2022/08/10 04:05:06;;;;;;;4.30;2.60;;;21.60;59.50;;;;;;4902172;29;20048;-80
2022/08/10 04:07:33;;;;;;;6.93;2.88;;;21.50;59.50;;;;;;4917036;29;20048;-80
2022/08/10 04:09:58;;;;;;;7.63;2.83;;;21.60;59.20;;;;;;4918699;29;20395;-80
2022/08/10 04:12:24;;;;;;;4.72;2.28;;;21.60;58.70;;;;;;4955087;29;20126;-80
2022/08/10 04:14:50;;;;;;;5.32;2.60;;;21.50;59.10;;;;;;4902729;29;20040;-79
2022/08/10 04:17:15;;;;;;;5.65;2.97;;;21.40;59.30;;;;;;4902309;29;20035;-80
2022/08/10 04:19:55;;;;;;;;;;;;;;;;;;;;;
2022/08/10 04:22:24;;;;;;;5.95;2.53;;;21.30;59.70;;;;;;4902223;29;20038;-79
2022/08/10 04:24:56;;;;;;;6.28;2.53;;;21.30;59.90;;;;;;4902063;29;20481;-80
2022/08/10 04:27:21;;;;;;;8.35;2.80;;;21.30;59.90;;;;;;4916559;29;20052;-80
2022/08/10 04:29:50;;;;;;;6.43;3.13;;;21.20;60.10;;;;;;4915617;29;20072;-80
2022/08/10 04:32:18;;;;;;;5.07;2.50;;;21.30;59.80;;;;;;4902024;29;20047;-80
2022/08/10 04:34:44;;;;;;;4.97;3.05;;;21.20;60.10;;;;;;4901896;29;20060;-79
2022/08/10 04:37:14;;;;;;;5.82;2.67;;;21.20;60.30;;;;;;4901904;29;20028;-80
2022/08/10 04:39:40;;;;;;;;;;;21.20;60.40;;;;;;4902090;29;20028;-78
2022/08/10 04:42:06;;;;;;;4.60;2.97;;;21.10;60.40;;;;;;4901593;29;20021;-79
2022/08/10 04:44:33;;;;;;;5.10;2.47;;;21.20;60.10;;;;;;4916421;29;20044;-78
2022/08/10 04:46:58;;;;;;;8.95;2.92;;;21.20;60.00;;;;;;4901243;29;20029;-78
2022/08/10 04:49:24;;;;;;;6.45;2.50;;;21.20;60.10;;;;;;4910767;29;20031;-82
2022/08/10 04:51:50;;;;;;;5.47;2.90;;;21.00;60.60;;;;;;4911714;29;20029;-80
2022/08/10 04:54:18;;;;;;;7.05;2.80;;;21.00;60.60;;;;;;4910380;29;20040;-81
2022/08/10 04:56:43;;;;;;;12.32;3.33;;;20.90;60.60;;;;;;4901927;29;20508;-84
2022/08/10 04:59:10;;;;;;;4.88;2.58;;;20.90;60.70;;;;;;4901636;29;20045;-82
2022/08/10 05:01:37;;;;;;;4.85;2.95;;;20.90;60.60;;;;;;4901361;29;20195;-80
2022/08/10 05:04:03;;;;;;;9.48;3.58;;;20.90;60.90;;;;;;4914418;29;20035;-78
2022/08/10 05:06:29;;;;;;;7.60;3.08;;;20.90;60.70;;;;;;4911795;29;20036;-81
2022/08/10 05:08:54;;;;;;;6.05;2.70;;;20.80;61.00;;;;;;4920663;29;20036;-82
2022/08/10 05:11:20;;;;;;;5.72;3.00;;;20.80;60.80;;;;;;4933794;29;20035;-84
2022/08/10 05:13:46;;;;;;;6.28;2.88;;;20.80;60.90;;;;;;4907135;29;20033;-88
2022/08/10 05:16:11;;;;;;;7.90;2.80;;;20.80;61.20;;;;;;4916067;29;20029;-80
2022/08/10 05:18:37;;;;;;;5.30;2.67;;;20.80;61.00;;;;;;4900044;29;20133;-79
2022/08/10 05:21:03;;;;;;;6.03;2.78;;;20.70;61.20;;;;;;4915562;29;20044;-78
2022/08/10 05:23:29;;;;;;;5.88;2.92;;;20.70;61.50;;;;;;4919570;29;20384;-79
2022/08/10 05:25:55;;;;;;;7.05;2.60;;;20.70;61.40;;;;;;4903477;29;20037;-79
2022/08/10 05:28:20;;;;;;;5.75;2.63;;;20.70;61.10;;;;;;4915489;29;20029;-78
2022/08/10 05:30:46;;;;;;;5.18;2.70;;;20.70;61.60;;;;;;4915096;29;20100;-79
2022/08/10 05:33:11;;;;;;;4.65;2.60;;;20.70;61.80;;;;;;4900635;29;20028;-79
2022/08/10 05:35:37;;;;;;;8.52;3.17;;;20.70;61.30;;;;;;4900636;29;20032;-79
2022/08/10 05:38:04;;;;;;;7.45;3.15;;;20.70;60.90;;;;;;4905179;29;20128;-81
2022/08/10 05:40:30;;;;;;;5.18;2.83;;;20.70;61.60;;;;;;4900764;29;20040;-82
2022/08/10 05:42:56;;;;;;;5.75;2.70;;;20.70;61.60;;;;;;4914674;29;20029;-82
2022/08/10 05:45:26;;;;;;;5.75;3.45;;;20.70;61.50;;;;;;4900666;29;20040;-80
2022/08/10 05:47:52;;;;;;;5.63;3.63;;;20.70;61.50;;;;;;4915415;29;20032;-80
2022/08/10 05:50:33;;;;;;;6.63;3.10;;;20.70;61.50;;;;;;4913961;29;20420;-80
2022/08/10 05:52:59;;;;;;;5.55;2.90;;;20.70;61.30;;;;;;4900065;29;20017;-80
2022/08/10 05:55:28;;;;;;;7.15;2.83;;;20.70;61.80;;;;;;4900099;29;20036;-80
2022/08/10 05:57:55;;;;;;;11.15;3.03;;;20.80;61.60;;;;;;4900554;29;20035;-80
2022/08/10 06:00:24;;;;;;;6.90;2.88;;;20.80;61.60;;;;;;4900502;29;20032;-80
2022/08/10 06:02:56;;;;;;;5.55;2.70;;;20.80;61.20;;;;;;4900205;29;20053;-80
2022/08/10 06:05:28;;;;;;;5.05;2.75;;;20.80;61.70;;;;;;4913712;29;20139;-80
2022/08/10 06:07:59;;;;;;;4.65;3.00;;;20.70;61.80;;;;;;4900443;29;20035;-81
2022/08/10 06:10:27;;;;;;;7.50;3.33;;;20.80;61.90;;;;;;4923173;29;20404;-81
2022/08/10 06:15:41;;;;;;;6.45;3.25;;;20.80;62.30;;;;;;4900489;29;20596;-79
2022/08/10 06:18:08;;;;;;;8.98;3.17;;;20.80;61.40;;;;;;4914813;29;20024;-80
2022/08/10 06:20:34;;;;;;;7.15;3.20;;;20.80;62.20;;;;;;4899096;29;20029;-80
2022/08/10 06:23:01;;;;;;;5.35;3.22;;;20.70;63.10;;;;;;4900432;29;20040;-80
2022/08/10 06:25:30;;;;;;;4.82;3.30;;;20.80;63.00;;;;;;4900149;29;20449;-80
2022/08/10 06:27:57;;;;;;;3.85;2.60;;;20.80;62.40;;;;;;4900021;29;20043;-80
2022/08/10 06:30:25;;;;;;;9.32;3.50;;;20.80;62.20;;;;;;4899793;29;20381;-80
2022/08/10 06:32:55;;;;;;;7.72;3.33;;;20.90;62.00;;;;;;4900099;29;20028;-80
2022/08/10 06:35:24;;;;;;;6.75;3.08;;;20.90;61.40;;;;;;4900021;29;20028;-80
2022/08/10 06:37:52;;;;;;;7.03;2.88;;;21.00;61.50;;;;;;4900414;29;20028;-80
2022/08/10 06:40:19;;;;;;;6.72;3.05;;;21.00;61.40;;;;;;4899985;29;20060;-80
2022/08/10 06:42:47;;;;;;;5.47;2.95;;;21.00;61.60;;;;;;4914786;29;20041;-80
2022/08/10 06:45:18;;;;;;;5.80;3.28;;;21.00;61.80;;;;;;4899785;29;20413;-80
2022/08/10 06:48:03;;;;;;;7.20;3.70;;;21.10;61.80;;;;;;4899628;29;20028;-80
2022/08/10 06:50:34;;;;;;;6.03;2.70;;;21.20;61.90;;;;;;4914553;29;20143;-80
2022/08/10 06:53:01;;;;;;;5.57;3.35;;;21.20;62.50;;;;;;4899042;29;20025;-80
2022/08/10 06:55:28;;;;;;;6.68;2.95;;;21.20;62.20;;;;;;4898938;29;20024;-80
2022/08/10 06:57:54;;;;;;;6.30;2.75;;;21.30;61.80;;;;;;4900014;29;20025;-79
2022/08/10 07:00:22;;;;;;;6.22;3.20;;;21.30;61.40;;;;;;4914385;29;20116;-80
2022/08/10 07:02:54;;;;;;;7.78;3.40;;;21.30;61.50;;;;;;4899854;29;20420;-80
2022/08/10 07:05:23;;;;;;;7.03;3.47;;;21.40;61.40;;;;;;4902037;29;20103;-80
2022/08/10 07:07:51;;;;;;;9.75;2.92;;;21.40;62.00;;;;;;4918226;29;20032;-82
2022/08/10 07:10:20;;;;;;;5.60;2.85;;;21.50;61.00;;;;;;4924555;29;20020;-80
2022/08/10 07:12:53;;;;;;;4.35;2.35;;;21.50;61.90;;;;;;4937375;29;20036;-79
2022/08/10 07:15:20;;;;;;;5.30;2.78;;;21.70;61.40;;;;;;4908236;29;20036;-80
2022/08/10 07:17:47;;;;;;;4.90;2.55;;;22.00;60.70;;;;;;4917982;29;20033;-80
2022/08/10 07:20:18;;;;;;;5.25;2.72;;;22.70;59.30;;;;;;4903387;29;20029;-80
2022/08/10 07:22:47;;;;;;;5.30;2.60;;;23.80;56.20;;;;;;4903065;29;20068;-81
2022/08/10 07:25:17;;;;;;;3.50;2.22;;;26.20;50.50;;;;;;4903297;29;20029;-80
2022/08/10 07:27:44;;;;;;;3.63;2.08;;;29.20;43.90;;;;;;4917921;29;20040;-81
2022/08/10 07:30:10;;;;;;;4.25;2.10;;;31.70;39.10;;;;;;4916425;29;20042;-81
2022/08/10 07:32:38;;;;;;;6.35;2.10;;;33.40;35.60;;;;;;4903278;29;20048;-81
2022/08/10 07:35:05;;;;;;;6.40;2.17;;;34.00;33.70;;;;;;4904324;29;20036;-81
2022/08/10 07:37:34;;;;;;;4.55;2.08;;;33.30;34.50;;;;;;4927910;29;20409;-80
2022/08/10 07:40:02;;;;;;;5.70;2.35;;;31.70;36.40;;;;;;4921867;29;20021;-80
2022/08/10 07:42:29;;;;;;;5.65;2.00;;;31.20;37.60;;;;;;4904032;29;20063;-81
2022/08/10 07:44:55;;;;;;;4.93;2.10;;;31.30;37.60;;;;;;4903022;29;20107;-81
2022/08/10 07:47:30;;;;;;;5.03;1.83;;;32.50;36.30;;;;;;4902930;29;20059;-81
2022/08/10 07:50:02;;;;;;;6.75;2.30;;;33.90;34.00;;;;;;4917412;29;20040;-81
2022/08/10 07:52:31;;;;;;;4.82;1.88;;;35.10;32.20;;;;;;4902911;29;20032;-81
2022/08/10 07:54:59;;;;;;;5.10;1.73;;;36.40;30.40;;;;;;4902747;29;20031;-81
2022/08/10 07:57:28;;;;;;;2.90;1.67;;;37.80;28.10;;;;;;4902331;29;20044;-82
2022/08/10 08:00:04;;;;;;;3.58;1.70;;;38.70;27.00;;;;;;4902669;29;20036;-82
2022/08/10 08:02:36;;;;;;;5.32;2.08;;;39.60;25.60;;;;;;4902214;29;20060;-82
2022/08/10 08:05:08;;;;;;;3.80;2.05;;;40.30;24.90;;;;;;4902613;29;20036;-81
2022/08/10 08:07:37;;;;;;;2.05;1.50;;;40.80;24.00;;;;;;4902508;29;20168;-82
2022/08/10 08:10:05;;;;;;;4.35;1.77;;;41.20;23.80;;;;;;4919914;29;20024;-82
2022/08/10 08:12:32;;;;;;;4.30;1.60;;;41.70;23.50;;;;;;4923155;29;20028;-82
2022/08/10 08:14:59;;;;;;;3.55;1.40;;;42.00;22.50;;;;;;4901753;29;20423;-82
2022/08/10 08:17:25;;;;;;;5.47;1.50;;;42.20;22.50;;;;;;4916629;29;20041;-81
2022/08/10 08:19:56;;;;;;;3.03;1.48;;;42.30;22.00;;;;;;4902557;29;20028;-82
2022/08/10 08:22:23;;;;;;;5.05;1.70;;;42.40;21.90;;;;;;4902325;29;20032;-82
2022/08/10 08:24:50;;;;;;;3.35;1.58;;;42.80;21.90;;;;;;4902368;29;20107;-82
2022/08/10 08:27:21;;;;;;;5.53;1.33;;;42.60;21.60;;;;;;4902094;29;20048;-82
2022/08/10 08:29:49;;;;;;;4.28;1.50;;;42.90;21.60;;;;;;4902006;29;20519;-81
2022/08/10 08:32:18;;;;;;;3.38;1.50;;;42.90;21.40;;;;;;4915166;29;20037;-82
2022/08/10 08:34:46;;;;;;;3.15;1.60;;;42.90;21.40;;;;;;4901991;29;20059;-82
2022/08/10 08:37:15;;;;;;;5.15;2.03;;;42.90;21.00;;;;;;4916564;29;20028;-82
2022/08/10 08:39:41;;;;;;;6.20;1.60;;;42.50;21.40;;;;;;4902052;29;20035;-82
2022/08/10 08:42:44;;;;;;;3.88;1.60;;;42.70;21.50;;;;;;4901775;29;20476;-82
2022/08/10 08:45:14;;;;;;;2.28;1.60;;;42.80;21.40;;;;;;4901875;29;20119;-82
2022/08/10 08:48:14;;;;;;;4.38;1.63;;;43.00;21.50;;;;;;4901612;29;20148;-82
2022/08/10 08:51:26;;;;;;;3.65;1.80;;;43.10;21.10;;;;;;4915846;29;20069;-83
2022/08/10 08:54:07;;;;;;;3.60;1.67;;;43.20;21.30;;;;;;4901768;29;20036;-83
2022/08/10 08:56:41;;;;;;;2.65;1.38;;;43.30;20.40;;;;;;4901716;29;20065;-83
2022/08/10 08:59:42;;;;;;;3.67;1.40;;;43.30;20.80;;;;;;4900403;29;20063;-83
2022/08/10 09:02:33;;;;;;;4.40;1.30;;;43.30;21.60;;;;;;4915879;29;20532;-83
2022/08/10 09:05:50;;;;;;;6.38;1.73;;;42.90;21.20;;;;;;4911273;29;20440;-83
2022/08/10 09:08:28;;;;;;;;;;;42.30;22.10;;;;;;4885152;29;20107;-83
2022/08/10 09:11:08;;;;;;;9.57;1.50;;;41.20;22.60;;;;;;4927866;29;20399;-83
2022/08/10 09:13:53;;;;;;;4.50;1.88;;;40.00;24.00;;;;;;4914258;29;20029;-83
2022/08/10 09:16:47;;;;;;;2.30;1.60;;;38.90;24.90;;;;;;4901177;29;20021;-82
2022/08/10 09:19:42;;;;;;;4.32;3.20;;;38.60;25.10;;;;;;4901504;29;20079;-81
2022/08/10 09:22:21;;;;;;;3.05;1.50;;;38.70;24.80;;;;;;4901209;29;20028;-82
2022/08/10 09:24:57;;;;;;;4.25;1.90;;;39.60;24.30;;;;;;4900664;29;20413;-83
2022/08/10 09:27:44;;;;;;;3.28;2.00;;;40.70;23.60;;;;;;4899173;29;20032;-83
2022/08/10 09:30:12;;;;;;;8.57;1.80;;;41.60;22.40;;;;;;4900989;29;20052;-82
2022/08/10 09:32:40;;;;;;;6.97;1.65;;;42.10;21.80;;;;;;4915331;29;20170;-82
2022/08/10 09:35:18;;;;;;;4.63;1.50;;;42.30;21.90;;;;;;4900981;29;20081;-82
2022/08/10 09:37:54;;;;;;;2.78;1.48;;;42.40;21.40;;;;;;4915437;29;20031;-82
2022/08/10 09:40:59;;;;;;;6.13;1.63;;;42.00;21.10;;;;;;4915271;29;20064;-82
2022/08/10 09:43:42;;;;;;;3.30;1.35;;;41.10;22.10;;;;;;4899585;29;20516;-82
2022/08/10 09:46:32;;;;;;;5.90;1.85;;;41.00;23.00;;;;;;4899417;29;20029;-82
2022/08/10 09:49:04;;;;;;;4.13;2.00;;;41.00;22.70;;;;;;4900762;29;20036;-81
2022/08/10 09:52:04;;;;;;;3.65;1.65;;;41.50;22.20;;;;;;4900632;29;20088;-81
2022/08/10 09:54:52;;;;;;;3.47;1.75;;;41.90;21.30;;;;;;4900993;29;20029;-82
2022/08/10 09:57:50;;;;;;;3.33;1.47;;;42.60;21.40;;;;;;4900695;29;20031;-82
2022/08/10 10:00:22;;;;;;;3.70;1.50;;;43.10;20.60;;;;;;4900317;29;20269;-82
2022/08/10 10:03:29;;;;;;;2.10;1.30;;;43.50;20.00;;;;;;4900174;29;20492;-81
2022/08/10 10:06:28;;;;;;;3.20;1.52;;;43.70;19.70;;;;;;4890517;29;20728;-82
2022/08/10 10:09:08;;;;;;;3.97;1.90;;;43.90;18.70;;;;;;4915011;29;20397;-81
2022/08/10 10:11:42;;;;;;;2.38;1.40;;;43.90;19.30;;;;;;4908866;29;20488;-82
2022/08/10 10:14:18;;;;;;;3.78;1.70;;;44.00;19.80;;;;;;4917991;29;20021;-81
2022/08/10 10:17:06;;;;;;;3.55;1.48;;;43.50;19.60;;;;;;4918943;29;20024;-82
2022/08/10 10:19:51;;;;;;;3.92;1.50;;;43.50;19.10;;;;;;4914074;29;20027;-81
2022/08/10 10:22:38;;;;;;;4.85;2.05;;;43.30;19.00;;;;;;4900374;29;20032;-82
2022/08/10 10:25:25;;;;;;;3.40;1.40;;;43.10;19.60;;;;;;4899225;29;20063;-81
2022/08/10 10:28:08;;;;;;;2.53;1.42;;;43.10;19.10;;;;;;4900437;29;20040;-82
2022/08/10 10:31:22;;;;;;;2.88;1.65;;;42.80;20.00;;;;;;4900094;29;20036;-81
2022/08/10 10:34:10;;;;;;;3.92;1.38;;;42.80;20.00;;;;;;4911317;29;20044;-81
2022/08/10 10:36:39;;;;;;;5.22;1.48;;;42.00;20.40;;;;;;4900166;29;20029;-82
2022/08/10 10:39:06;;;;;;;2.80;1.30;;;41.30;21.30;;;;;;4917069;29;20036;-81
2022/08/10 10:41:40;;;;;;;2.53;1.50;;;40.30;22.20;;;;;;4903793;29;20455;-81
2022/08/10 10:44:24;;;;;;;3.67;1.70;;;39.40;22.80;;;;;;4903865;29;20032;-82
2022/08/10 10:47:02;;;;;;;2.05;1.30;;;38.70;23.30;;;;;;4918455;29;20043;-81
2022/08/10 10:49:46;;;;;;;5.28;1.73;;;37.90;24.30;;;;;;4904002;29;20092;-81
2022/08/10 10:52:33;;;;;;;2.70;1.60;;;37.50;24.50;;;;;;4903361;29;20396;-83
2022/08/10 10:55:14;;;;;;;2.15;1.58;;;37.00;24.60;;;;;;4903885;29;20040;-82
2022/08/10 10:58:03;;;;;;;4.00;1.65;;;36.60;25.30;;;;;;4903595;29;20045;-81
2022/08/10 11:00:42;;;;;;;3.60;1.52;;;36.40;26.10;;;;;;4903659;29;20039;-80
2022/08/10 11:03:25;;;;;;;7.15;1.30;;;36.20;25.30;;;;;;4903490;29;20044;-81
2022/08/10 11:06:02;;;;;;;3.72;1.73;;;36.00;25.30;;;;;;4903790;29;20108;-81
2022/08/10 11:08:35;;;;;;;3.17;1.33;;;35.80;26.10;;;;;;4902388;29;20027;-81
2022/08/10 11:11:08;;;;;;;3.47;1.65;;;35.90;24.80;;;;;;4908963;29;20035;-81
2022/08/10 11:13:43;;;;;;;3.53;1.58;;;35.90;25.30;;;;;;4913258;29;20032;-81
2022/08/10 11:16:36;;;;;;;2.28;1.50;;;35.90;25.20;;;;;;4903410;29;20048;-81
2022/08/10 11:19:19;;;;;;;4.15;1.70;;;35.80;24.80;;;;;;4903618;29;20546;-81
2022/08/10 11:22:06;;;;;;;3.05;1.50;;;35.80;24.90;;;;;;4903223;29;20032;-81
2022/08/10 11:24:57;;;;;;;3.55;1.77;;;35.30;24.70;;;;;;4903378;29;20080;-82
2022/08/10 11:27:48;;;;;;;3.05;1.40;;;35.00;25.40;;;;;;4903240;29;20096;-81
2022/08/10 11:30:19;;;;;;;5.28;1.75;;;35.10;25.30;;;;;;4902093;29;20441;-82
2022/08/10 11:33:21;;;;;;;3.58;1.65;;;35.30;25.50;;;;;;4903160;29;20084;-81
2022/08/10 11:35:52;;;;;;;2.80;1.83;;;35.30;25.00;;;;;;4902944;29;20029;-81
2022/08/10 11:38:45;;;;;;;2.45;1.67;;;35.20;24.70;;;;;;4903141;29;20024;-81
2022/08/10 11:41:37;;;;;;;3.13;1.73;;;35.10;24.90;;;;;;4903300;29;20036;-82
2022/08/10 11:44:44;;;;;;;3.05;1.50;;;35.30;24.70;;;;;;4902708;29;20023;-82
2022/08/10 11:47:16;;;;;;;2.80;1.88;;;35.30;24.70;;;;;;4900307;29;20124;-82
2022/08/10 11:49:45;;;;;;;2.80;1.88;;;35.30;24.10;;;;;;4902059;29;20041;-82
2022/08/10 11:52:21;;;;;;;2.25;2.03;;;35.30;24.20;;;;;;4902737;29;20504;-82
2022/08/10 11:54:53;;;;;;;5.53;1.60;;;35.30;24.20;;;;;;4909342;29;20092;-81
2022/08/10 11:57:21;;;;;;;3.22;1.83;;;35.30;23.90;;;;;;4917399;29;20088;-81
2022/08/10 11:59:55;;;;;;;2.35;1.80;;;35.20;23.70;;;;;;4902650;29;20068;-81
2022/08/10 12:02:23;;;;;;;1.52;1.42;;;35.30;23.60;;;;;;4901316;29;20049;-82
2022/08/10 12:05:05;;;;;;;4.45;1.63;;;35.00;23.00;;;;;;4916684;29;20045;-82
2022/08/10 12:07:32;;;;;;;2.53;1.52;;;35.00;23.30;;;;;;4901379;29;20102;-82
2022/08/10 12:10:00;;;;;;;2.88;1.30;;;34.90;22.30;;;;;;4928615;29;20027;-82
2022/08/10 12:12:29;;;;;;;2.33;1.58;;;34.80;22.80;;;;;;4920042;29;20571;-82
2022/08/10 12:15:32;;;;;;;;;;;34.70;23.30;;;;;;4917283;29;20409;-83
2022/08/10 12:18:03;;;;;;;3.63;1.40;;;34.90;23.90;;;;;;4810632;29;19984;-83
2022/08/10 12:20:36;;;;;;;2.20;1.70;;;35.00;23.90;;;;;;4890082;29;20500;-82
2022/08/10 12:23:18;;;;;;;2.90;1.73;;;34.90;23.60;;;;;;4902010;29;20048;-84
2022/08/10 12:26:08;;;;;;;3.00;1.25;;;34.90;23.30;;;;;;4902129;29;20035;-83
2022/08/10 12:28:41;;;;;;;4.22;1.52;;;34.90;23.40;;;;;;4916789;29;20043;-83
2022/08/10 12:31:10;;;;;;;1.77;1.35;;;34.90;23.20;;;;;;4916808;29;20028;-82
2022/08/10 12:33:52;;;;;;;1.95;1.30;;;35.10;23.10;;;;;;4902186;29;20808;-83
2022/08/10 12:36:35;;;;;;;3.67;1.63;;;35.20;22.60;;;;;;4902067;29;20036;-82
2022/08/10 12:39:02;;;;;;;3.00;1.42;;;35.30;22.40;;;;;;4916291;29;20042;-83
2022/08/10 12:41:46;;;;;;;4.72;1.67;;;35.30;22.60;;;;;;4901588;29;20032;-83
2022/08/10 12:44:20;;;;;;;2.60;1.33;;;35.30;22.50;;;;;;4902025;29;20115;-83
2022/08/10 12:47:00;;;;;;;2.75;1.48;;;35.30;22.40;;;;;;4916415;29;20043;-83
2022/08/10 12:49:45;;;;;;;2.90;1.30;;;35.30;22.10;;;;;;4915154;29;20040;-83
2022/08/10 12:52:14;;;;;;;2.53;1.50;;;35.20;22.00;;;;;;4901916;29;20137;-83
2022/08/10 12:54:41;;;;;;;2.95;1.48;;;35.20;22.30;;;;;;4916062;29;20040;-83
2022/08/10 12:57:09;;;;;;;5.18;1.80;;;35.20;22.40;;;;;;4901625;29;20029;-83
2022/08/10 12:59:45;;;;;;;4.57;1.90;;;35.20;22.90;;;;;;4901464;29;20036;-83
2022/08/10 13:02:17;;;;;;;2.38;1.58;;;35.20;22.70;;;;;;4900404;29;20131;-83
2022/08/10 13:04:47;;;;;;;3.67;1.90;;;35.10;23.00;;;;;;4901598;29;20095;-83
2022/08/10 13:07:26;;;;;;;2.80;1.67;;;35.20;23.10;;;;;;4901617;29;20059;-83
2022/08/10 13:09:52;;;;;;;3.28;1.70;;;35.00;22.80;;;;;;4925392;29;20031;-83
2022/08/10 13:12:20;;;;;;;2.28;1.50;;;35.10;23.30;;;;;;4924017;29;20403;-83
2022/08/10 13:15:02;;;;;;;3.78;1.98;;;35.20;23.50;;;;;;4919862;29;20103;-83
2022/08/10 13:17:33;;;;;;;3.53;1.23;;;35.20;22.70;;;;;;4918441;29;20084;-84
2022/08/10 13:20:04;;;;;;;4.57;1.40;;;35.30;22.40;;;;;;4901322;29;20043;-83
2022/08/10 13:22:31;;;;;;;4.72;1.67;;;35.30;21.90;;;;;;4916359;29;20042;-83
2022/08/10 13:25:01;;;;;;;1.90;1.20;;;35.30;21.70;;;;;;4915683;29;20503;-84